sensor_id;sensor_type;location;lat;lon;timestamp;temperature;humidity
54126;DHT22;40360;52.992;6.796;2023-04-26T00:01:11;2.90;99.90
54126;DHT22;40360;52.992;6.796;2023-04-26T00:03:39;2.90;99.90
54126;DHT22;40360;52.992;6.796;2023-04-26T00:06:05;2.90;99.90
54126;DHT22;40360;52.992;6.796;2023-04-26T00:08:33;2.90;99.90
54126;DHT22;40360;52.992;6.796;2023-04-26T00:10:59;2.90;99.90
54126;DHT22;40360;52.992;6.796;2023-04-26T00:13:24;2.90;99.90
54126;DHT22;40360;52.992;6.796;2023-04-26T00:15:50;2.80;99.90
54126;DHT22;40360;52.992;6.796;2023-04-26T00:18:16;2.80;99.90
54126;DHT22;40360;52.992;6.796;2023-04-26T00:20:42;2.90;99.90
54126;DHT22;40360;52.992;6.796;2023-04-26T00:23:07;2.80;99.90
54126;DHT22;40360;52.992;6.796;2023-04-26T00:25:36;2.90;99.90
54126;DHT22;40360;52.992;6.796;2023-04-26T00:28:02;2.80;99.90
54126;DHT22;40360;52.992;6.796;2023-04-26T00:30:28;2.80;99.90
54126;DHT22;40360;52.992;6.796;2023-04-26T00:32:54;2.80;99.90
54126;DHT22;40360;52.992;6.796;2023-04-26T00:35:19;2.80;99.90
54126;DHT22;40360;52.992;6.796;2023-04-26T00:37:45;2.80;99.90
54126;DHT22;40360;52.992;6.796;2023-04-26T00:40:12;2.90;99.90
54126;DHT22;40360;52.992;6.796;2023-04-26T00:42:38;2.90;99.90
54126;DHT22;40360;52.992;6.796;2023-04-26T00:45:05;3.00;99.90
54126;DHT22;40360;52.992;6.796;2023-04-26T00:47:31;3.00;99.90
54126;DHT22;40360;52.992;6.796;2023-04-26T00:49:57;3.00;99.90
54126;DHT22;40360;52.992;6.796;2023-04-26T00:52:24;3.00;99.90
54126;DHT22;40360;52.992;6.796;2023-04-26T00:54:50;3.00;99.90
54126;DHT22;40360;52.992;6.796;2023-04-26T00:57:16;3.00;99.90
54126;DHT22;40360;52.992;6.796;2023-04-26T00:59:45;3.00;99.90
54126;DHT22;40360;52.992;6.796;2023-04-26T01:02:11;2.90;99.90
54126;DHT22;40360;52.992;6.796;2023-04-26T01:04:37;2.90;99.90
54126;DHT22;40360;52.992;6.796;2023-04-26T01:07:04;2.90;99.90
54126;DHT22;40360;52.992;6.796;2023-04-26T01:09:31;2.80;99.90
54126;DHT22;40360;52.992;6.796;2023-04-26T01:11:57;2.90;99.90
54126;DHT22;40360;52.992;6.796;2023-04-26T01:14:23;2.70;99.90
54126;DHT22;40360;52.992;6.796;2023-04-26T01:16:49;2.70;99.90
54126;DHT22;40360;52.992;6.796;2023-04-26T01:19:16;2.60;99.90
54126;DHT22;40360;52.992;6.796;2023-04-26T01:21:43;2.60;99.90
54126;DHT22;40360;52.992;6.796;2023-04-26T01:24:10;2.60;99.90
54126;DHT22;40360;52.992;6.796;2023-04-26T01:26:36;2.60;99.90
54126;DHT22;40360;52.992;6.796;2023-04-26T01:29:21;2.60;99.90
54126;DHT22;40360;52.992;6.796;2023-04-26T01:31:48;2.60;99.90
54126;DHT22;40360;52.992;6.796;2023-04-26T01:34:14;2.60;99.90
54126;DHT22;40360;52.992;6.796;2023-04-26T01:36:40;2.50;99.90
54126;DHT22;40360;52.992;6.796;2023-04-26T01:39:05;2.60;99.90
54126;DHT22;40360;52.992;6.796;2023-04-26T01:41:32;2.60;99.90
54126;DHT22;40360;52.992;6.796;2023-04-26T01:43:58;2.60;99.90
54126;DHT22;40360;52.992;6.796;2023-04-26T01:46:24;2.60;99.90
54126;DHT22;40360;52.992;6.796;2023-04-26T01:48:50;2.50;99.90
54126;DHT22;40360;52.992;6.796;2023-04-26T01:51:15;2.60;99.90
54126;DHT22;40360;52.992;6.796;2023-04-26T01:53:41;2.60;99.90
54126;DHT22;40360;52.992;6.796;2023-04-26T01:56:07;2.60;99.90
54126;DHT22;40360;52.992;6.796;2023-04-26T01:58:32;2.50;99.90
54126;DHT22;40360;52.992;6.796;2023-04-26T02:01:08;2.50;99.90
54126;DHT22;40360;52.992;6.796;2023-04-26T02:03:34;2.50;99.90
54126;DHT22;40360;52.992;6.796;2023-04-26T02:06:00;2.50;99.90
54126;DHT22;40360;52.992;6.796;2023-04-26T02:08:26;2.50;99.90
54126;DHT22;40360;52.992;6.796;2023-04-26T02:10:51;2.50;99.90
54126;DHT22;40360;52.992;6.796;2023-04-26T02:13:17;2.50;99.90
54126;DHT22;40360;52.992;6.796;2023-04-26T02:15:50;2.50;99.90
54126;DHT22;40360;52.992;6.796;2023-04-26T02:18:16;2.50;99.90
54126;DHT22;40360;52.992;6.796;2023-04-26T02:20:43;2.50;99.90
54126;DHT22;40360;52.992;6.796;2023-04-26T02:23:10;2.50;99.90
54126;DHT22;40360;52.992;6.796;2023-04-26T02:25:36;2.50;99.90
54126;DHT22;40360;52.992;6.796;2023-04-26T02:28:06;2.50;99.90
54126;DHT22;40360;52.992;6.796;2023-04-26T02:30:31;2.50;99.90
54126;DHT22;40360;52.992;6.796;2023-04-26T02:32:57;2.50;99.90
54126;DHT22;40360;52.992;6.796;2023-04-26T02:35:23;2.50;99.90
54126;DHT22;40360;52.992;6.796;2023-04-26T02:37:49;2.60;99.90
54126;DHT22;40360;52.992;6.796;2023-04-26T02:40:19;2.60;99.90
54126;DHT22;40360;52.992;6.796;2023-04-26T02:42:45;2.60;99.90
54126;DHT22;40360;52.992;6.796;2023-04-26T02:45:11;2.60;99.90
54126;DHT22;40360;52.992;6.796;2023-04-26T02:47:37;2.60;99.90
54126;DHT22;40360;52.992;6.796;2023-04-26T02:50:07;2.60;99.90
54126;DHT22;40360;52.992;6.796;2023-04-26T02:52:36;2.50;99.90
54126;DHT22;40360;52.992;6.796;2023-04-26T02:55:02;2.50;99.90
54126;DHT22;40360;52.992;6.796;2023-04-26T02:57:31;2.50;99.90
54126;DHT22;40360;52.992;6.796;2023-04-26T02:59:58;2.50;99.90
54126;DHT22;40360;52.992;6.796;2023-04-26T03:02:24;2.40;99.90
54126;DHT22;40360;52.992;6.796;2023-04-26T03:04:49;2.40;99.90
54126;DHT22;40360;52.992;6.796;2023-04-26T03:07:15;2.40;99.90
54126;DHT22;40360;52.992;6.796;2023-04-26T03:09:41;2.40;99.90
54126;DHT22;40360;52.992;6.796;2023-04-26T03:12:07;2.40;99.90
54126;DHT22;40360;52.992;6.796;2023-04-26T03:14:33;2.40;99.90
54126;DHT22;40360;52.992;6.796;2023-04-26T03:17:00;2.30;99.90
54126;DHT22;40360;52.992;6.796;2023-04-26T03:19:25;2.30;99.90
54126;DHT22;40360;52.992;6.796;2023-04-26T03:21:53;2.30;99.90
54126;DHT22;40360;52.992;6.796;2023-04-26T03:24:18;2.30;99.90
54126;DHT22;40360;52.992;6.796;2023-04-26T03:26:44;2.30;99.90
54126;DHT22;40360;52.992;6.796;2023-04-26T03:29:10;2.20;99.90
54126;DHT22;40360;52.992;6.796;2023-04-26T03:31:36;2.20;99.90
54126;DHT22;40360;52.992;6.796;2023-04-26T03:34:02;2.20;99.90
54126;DHT22;40360;52.992;6.796;2023-04-26T03:36:28;2.20;99.90
54126;DHT22;40360;52.992;6.796;2023-04-26T03:38:54;2.20;99.90
54126;DHT22;40360;52.992;6.796;2023-04-26T03:41:20;2.20;99.90
54126;DHT22;40360;52.992;6.796;2023-04-26T03:43:47;2.20;99.90
54126;DHT22;40360;52.992;6.796;2023-04-26T03:46:12;2.20;99.90
54126;DHT22;40360;52.992;6.796;2023-04-26T03:48:38;2.20;99.90
54126;DHT22;40360;52.992;6.796;2023-04-26T03:51:05;2.20;99.90
54126;DHT22;40360;52.992;6.796;2023-04-26T03:53:30;2.20;99.90
54126;DHT22;40360;52.992;6.796;2023-04-26T03:55:57;2.20;99.90
54126;DHT22;40360;52.992;6.796;2023-04-26T03:58:24;2.30;99.90
54126;DHT22;40360;52.992;6.796;2023-04-26T04:00:50;2.30;99.90
54126;DHT22;40360;52.992;6.796;2023-04-26T04:03:16;2.40;99.90
54126;DHT22;40360;52.992;6.796;2023-04-26T04:05:42;2.50;99.90
54126;DHT22;40360;52.992;6.796;2023-04-26T04:08:07;2.50;99.90
54126;DHT22;40360;52.992;6.796;2023-04-26T04:10:33;2.50;99.90
54126;DHT22;40360;52.992;6.796;2023-04-26T04:12:59;2.60;99.90
54126;DHT22;40360;52.992;6.796;2023-04-26T04:15:25;2.60;99.90
54126;DHT22;40360;52.992;6.796;2023-04-26T04:17:51;2.60;99.90
54126;DHT22;40360;52.992;6.796;2023-04-26T04:20:16;2.60;99.90
54126;DHT22;40360;52.992;6.796;2023-04-26T04:22:42;2.70;99.90
54126;DHT22;40360;52.992;6.796;2023-04-26T04:25:08;2.70;99.90
54126;DHT22;40360;52.992;6.796;2023-04-26T04:27:38;2.70;99.90
54126;DHT22;40360;52.992;6.796;2023-04-26T04:30:07;2.70;99.90
54126;DHT22;40360;52.992;6.796;2023-04-26T04:32:34;2.80;99.90
54126;DHT22;40360;52.992;6.796;2023-04-26T04:35:00;2.70;99.90
54126;DHT22;40360;52.992;6.796;2023-04-26T04:37:26;2.70;99.90
54126;DHT22;40360;52.992;6.796;2023-04-26T04:39:52;2.70;99.90
54126;DHT22;40360;52.992;6.796;2023-04-26T04:42:17;2.70;99.90
54126;DHT22;40360;52.992;6.796;2023-04-26T04:44:43;2.70;99.90
54126;DHT22;40360;52.992;6.796;2023-04-26T04:47:11;2.70;99.90
54126;DHT22;40360;52.992;6.796;2023-04-26T04:49:37;2.70;99.90
54126;DHT22;40360;52.992;6.796;2023-04-26T04:52:04;2.70;99.90
54126;DHT22;40360;52.992;6.796;2023-04-26T04:54:29;2.70;99.90
54126;DHT22;40360;52.992;6.796;2023-04-26T04:56:55;2.70;99.90
54126;DHT22;40360;52.992;6.796;2023-04-26T04:59:22;2.80;99.90
54126;DHT22;40360;52.992;6.796;2023-04-26T05:01:48;2.80;99.90
54126;DHT22;40360;52.992;6.796;2023-04-26T05:04:14;2.90;99.90
54126;DHT22;40360;52.992;6.796;2023-04-26T05:06:40;2.90;99.90
54126;DHT22;40360;52.992;6.796;2023-04-26T05:09:06;3.00;99.90
54126;DHT22;40360;52.992;6.796;2023-04-26T05:11:32;3.00;99.90
54126;DHT22;40360;52.992;6.796;2023-04-26T05:13:58;3.10;99.90
54126;DHT22;40360;52.992;6.796;2023-04-26T05:16:23;3.10;99.90
54126;DHT22;40360;52.992;6.796;2023-04-26T05:18:49;3.20;99.90
54126;DHT22;40360;52.992;6.796;2023-04-26T05:21:15;3.30;99.90
54126;DHT22;40360;52.992;6.796;2023-04-26T05:23:41;3.30;99.90
54126;DHT22;40360;52.992;6.796;2023-04-26T05:26:09;3.30;99.90
54126;DHT22;40360;52.992;6.796;2023-04-26T05:28:35;3.40;99.90
54126;DHT22;40360;52.992;6.796;2023-04-26T05:31:00;3.40;99.90
54126;DHT22;40360;52.992;6.796;2023-04-26T05:33:26;3.40;99.90
54126;DHT22;40360;52.992;6.796;2023-04-26T05:35:53;3.40;99.90
54126;DHT22;40360;52.992;6.796;2023-04-26T05:38:19;3.50;99.90
54126;DHT22;40360;52.992;6.796;2023-04-26T05:40:46;3.50;99.90
54126;DHT22;40360;52.992;6.796;2023-04-26T06:00:44;3.60;99.90
54126;DHT22;40360;52.992;6.796;2023-04-26T06:03:10;3.60;99.90
54126;DHT22;40360;52.992;6.796;2023-04-26T06:05:37;3.60;99.90
54126;DHT22;40360;52.992;6.796;2023-04-26T06:08:03;3.60;99.90
54126;DHT22;40360;52.992;6.796;2023-04-26T06:10:28;3.80;99.90
54126;DHT22;40360;52.992;6.796;2023-04-26T06:12:54;3.90;99.90
54126;DHT22;40360;52.992;6.796;2023-04-26T06:15:20;4.10;99.90
54126;DHT22;40360;52.992;6.796;2023-04-26T06:17:46;4.10;99.90
54126;DHT22;40360;52.992;6.796;2023-04-26T06:20:12;4.20;99.90
54126;DHT22;40360;52.992;6.796;2023-04-26T06:22:37;4.30;99.90
54126;DHT22;40360;52.992;6.796;2023-04-26T06:25:04;4.50;99.90
54126;DHT22;40360;52.992;6.796;2023-04-26T06:27:30;4.70;99.90
54126;DHT22;40360;52.992;6.796;2023-04-26T06:29:55;4.90;99.90
54126;DHT22;40360;52.992;6.796;2023-04-26T06:32:21;5.20;99.90
54126;DHT22;40360;52.992;6.796;2023-04-26T06:34:47;5.40;99.90
54126;DHT22;40360;52.992;6.796;2023-04-26T06:37:13;5.40;99.90
54126;DHT22;40360;52.992;6.796;2023-04-26T06:39:38;5.60;99.90
54126;DHT22;40360;52.992;6.796;2023-04-26T06:42:04;5.60;99.90
54126;DHT22;40360;52.992;6.796;2023-04-26T06:44:30;5.60;99.90
54126;DHT22;40360;52.992;6.796;2023-04-26T06:46:56;5.60;99.90
54126;DHT22;40360;52.992;6.796;2023-04-26T06:49:23;5.60;99.90
54126;DHT22;40360;52.992;6.796;2023-04-26T06:51:48;5.70;99.90
54126;DHT22;40360;52.992;6.796;2023-04-26T06:54:15;5.80;99.90
54126;DHT22;40360;52.992;6.796;2023-04-26T06:56:41;5.90;99.90
54126;DHT22;40360;52.992;6.796;2023-04-26T06:59:07;5.90;99.90
54126;DHT22;40360;52.992;6.796;2023-04-26T07:01:33;6.00;99.90
54126;DHT22;40360;52.992;6.796;2023-04-26T07:04:00;6.10;99.90
54126;DHT22;40360;52.992;6.796;2023-04-26T07:06:27;6.20;99.90
54126;DHT22;40360;52.992;6.796;2023-04-26T07:08:54;6.40;99.90
54126;DHT22;40360;52.992;6.796;2023-04-26T07:11:19;6.50;99.90
54126;DHT22;40360;52.992;6.796;2023-04-26T07:13:45;6.50;99.90
54126;DHT22;40360;52.992;6.796;2023-04-26T07:16:11;6.60;99.90
54126;DHT22;40360;52.992;6.796;2023-04-26T07:18:40;6.70;99.90
54126;DHT22;40360;52.992;6.796;2023-04-26T07:21:06;6.70;99.90
54126;DHT22;40360;52.992;6.796;2023-04-26T07:23:32;6.70;99.90
54126;DHT22;40360;52.992;6.796;2023-04-26T07:25:57;6.70;99.90
54126;DHT22;40360;52.992;6.796;2023-04-26T07:28:23;6.80;99.90
54126;DHT22;40360;52.992;6.796;2023-04-26T07:30:49;6.80;99.90
54126;DHT22;40360;52.992;6.796;2023-04-26T07:33:14;6.80;99.90
54126;DHT22;40360;52.992;6.796;2023-04-26T07:35:42;6.80;99.90
54126;DHT22;40360;52.992;6.796;2023-04-26T07:38:08;6.80;99.90
54126;DHT22;40360;52.992;6.796;2023-04-26T07:40:34;6.90;99.90
54126;DHT22;40360;52.992;6.796;2023-04-26T07:43:00;7.00;99.90
54126;DHT22;40360;52.992;6.796;2023-04-26T07:45:25;7.10;99.90
54126;DHT22;40360;52.992;6.796;2023-04-26T07:47:51;7.20;99.90
54126;DHT22;40360;52.992;6.796;2023-04-26T07:50:17;7.30;99.90
54126;DHT22;40360;52.992;6.796;2023-04-26T07:52:43;7.50;99.90
54126;DHT22;40360;52.992;6.796;2023-04-26T07:55:09;7.60;99.90
54126;DHT22;40360;52.992;6.796;2023-04-26T07:57:35;7.80;99.90
54126;DHT22;40360;52.992;6.796;2023-04-26T08:00:03;7.90;99.90
54126;DHT22;40360;52.992;6.796;2023-04-26T08:02:32;7.90;99.90
54126;DHT22;40360;52.992;6.796;2023-04-26T08:04:58;8.10;99.90
54126;DHT22;40360;52.992;6.796;2023-04-26T08:07:24;8.10;99.90
54126;DHT22;40360;52.992;6.796;2023-04-26T08:09:50;8.10;99.90
54126;DHT22;40360;52.992;6.796;2023-04-26T08:12:15;8.20;99.90
54126;DHT22;40360;52.992;6.796;2023-04-26T08:14:41;8.30;99.90
54126;DHT22;40360;52.992;6.796;2023-04-26T08:17:07;8.30;99.90
54126;DHT22;40360;52.992;6.796;2023-04-26T08:19:36;8.40;99.90
54126;DHT22;40360;52.992;6.796;2023-04-26T08:22:01;8.50;99.90
54126;DHT22;40360;52.992;6.796;2023-04-26T08:24:28;8.50;99.90
54126;DHT22;40360;52.992;6.796;2023-04-26T08:26:54;8.60;99.90
54126;DHT22;40360;52.992;6.796;2023-04-26T08:29:19;8.70;99.90
54126;DHT22;40360;52.992;6.796;2023-04-26T08:31:45;8.80;99.90
54126;DHT22;40360;52.992;6.796;2023-04-26T08:34:11;8.90;99.90
54126;DHT22;40360;52.992;6.796;2023-04-26T08:36:41;9.00;99.90
54126;DHT22;40360;52.992;6.796;2023-04-26T08:39:07;9.10;99.90
54126;DHT22;40360;52.992;6.796;2023-04-26T08:41:35;9.00;99.90
54126;DHT22;40360;52.992;6.796;2023-04-26T08:44:05;9.20;99.90
54126;DHT22;40360;52.992;6.796;2023-04-26T08:46:57;9.30;99.90
54126;DHT22;40360;52.992;6.796;2023-04-26T08:49:29;9.40;99.90
54126;DHT22;40360;52.992;6.796;2023-04-26T08:51:56;9.40;99.90
54126;DHT22;40360;52.992;6.796;2023-04-26T08:54:23;9.50;99.90
54126;DHT22;40360;52.992;6.796;2023-04-26T08:56:50;9.60;99.90
54126;DHT22;40360;52.992;6.796;2023-04-26T08:59:18;9.60;99.90
54126;DHT22;40360;52.992;6.796;2023-04-26T09:01:45;9.60;99.90
54126;DHT22;40360;52.992;6.796;2023-04-26T09:04:11;9.70;99.90
54126;DHT22;40360;52.992;6.796;2023-04-26T09:06:38;9.70;99.90
54126;DHT22;40360;52.992;6.796;2023-04-26T09:09:04;9.80;99.90
54126;DHT22;40360;52.992;6.796;2023-04-26T09:11:55;9.80;99.90
54126;DHT22;40360;52.992;6.796;2023-04-26T09:14:22;9.70;99.90
54126;DHT22;40360;52.992;6.796;2023-04-26T09:16:48;9.70;99.90
54126;DHT22;40360;52.992;6.796;2023-04-26T09:19:14;9.70;99.90
54126;DHT22;40360;52.992;6.796;2023-04-26T09:21:42;9.60;99.90
54126;DHT22;40360;52.992;6.796;2023-04-26T09:24:09;9.60;99.90
54126;DHT22;40360;52.992;6.796;2023-04-26T09:26:34;9.70;99.90
54126;DHT22;40360;52.992;6.796;2023-04-26T09:29:20;9.80;99.90
54126;DHT22;40360;52.992;6.796;2023-04-26T09:31:48;9.90;99.90
54126;DHT22;40360;52.992;6.796;2023-04-26T09:34:14;9.80;99.90
54126;DHT22;40360;52.992;6.796;2023-04-26T09:39:48;9.70;99.90
54126;DHT22;40360;52.992;6.796;2023-04-26T09:42:15;9.60;99.90
54126;DHT22;40360;52.992;6.796;2023-04-26T09:44:42;9.40;99.90
54126;DHT22;40360;52.992;6.796;2023-04-26T09:47:10;9.30;99.90
54126;DHT22;40360;52.992;6.796;2023-04-26T09:49:50;9.00;99.90
54126;DHT22;40360;52.992;6.796;2023-04-26T09:52:19;8.80;99.90
54126;DHT22;40360;52.992;6.796;2023-04-26T09:54:52;8.50;99.90
54126;DHT22;40360;52.992;6.796;2023-04-26T09:57:19;8.30;99.90
54126;DHT22;40360;52.992;6.796;2023-04-26T09:59:50;8.20;99.90
54126;DHT22;40360;52.992;6.796;2023-04-26T10:02:24;8.10;99.90
54126;DHT22;40360;52.992;6.796;2023-04-26T10:04:53;7.90;99.90
54126;DHT22;40360;52.992;6.796;2023-04-26T10:07:21;7.80;99.90
54126;DHT22;40360;52.992;6.796;2023-04-26T10:09:47;7.80;99.90
54126;DHT22;40360;52.992;6.796;2023-04-26T10:12:15;7.80;99.90
54126;DHT22;40360;52.992;6.796;2023-04-26T10:14:43;7.70;99.90
54126;DHT22;40360;52.992;6.796;2023-04-26T10:17:09;7.70;99.90
54126;DHT22;40360;52.992;6.796;2023-04-26T10:19:37;7.80;99.90
54126;DHT22;40360;52.992;6.796;2023-04-26T10:22:18;7.90;99.90
54126;DHT22;40360;52.992;6.796;2023-04-26T10:24:45;8.00;99.90
54126;DHT22;40360;52.992;6.796;2023-04-26T10:27:12;8.00;99.90
54126;DHT22;40360;52.992;6.796;2023-04-26T10:32:22;8.30;99.90
54126;DHT22;40360;52.992;6.796;2023-04-26T10:35:10;8.40;99.90
54126;DHT22;40360;52.992;6.796;2023-04-26T10:38:00;8.60;99.90
54126;DHT22;40360;52.992;6.796;2023-04-26T10:40:28;8.90;99.90
54126;DHT22;40360;52.992;6.796;2023-04-26T10:45:39;9.20;99.90
54126;DHT22;40360;52.992;6.796;2023-04-26T10:48:17;9.40;99.90
54126;DHT22;40360;52.992;6.796;2023-04-26T10:53:31;9.60;99.90
54126;DHT22;40360;52.992;6.796;2023-04-26T10:55:57;9.70;99.90
54126;DHT22;40360;52.992;6.796;2023-04-26T10:58:27;9.70;99.90
54126;DHT22;40360;52.992;6.796;2023-04-26T11:01:18;9.70;99.90
54126;DHT22;40360;52.992;6.796;2023-04-26T11:06:29;9.70;99.90
54126;DHT22;40360;52.992;6.796;2023-04-26T11:09:40;9.70;99.90
54126;DHT22;40360;52.992;6.796;2023-04-26T11:12:11;9.70;99.90
54126;DHT22;40360;52.992;6.796;2023-04-26T11:14:37;9.90;99.90
54126;DHT22;40360;52.992;6.796;2023-04-26T11:17:04;10.10;99.90
54126;DHT22;40360;52.992;6.796;2023-04-26T11:19:31;10.20;99.90
54126;DHT22;40360;52.992;6.796;2023-04-26T11:21:58;10.30;99.90
54126;DHT22;40360;52.992;6.796;2023-04-26T11:24:26;10.40;99.90
54126;DHT22;40360;52.992;6.796;2023-04-26T11:26:52;10.40;99.90
54126;DHT22;40360;52.992;6.796;2023-04-26T11:29:21;10.40;99.90
54126;DHT22;40360;52.992;6.796;2023-04-26T11:31:53;10.40;99.90
54126;DHT22;40360;52.992;6.796;2023-04-26T11:34:31;10.60;99.90
54126;DHT22;40360;52.992;6.796;2023-04-26T11:36:57;10.60;99.90
54126;DHT22;40360;52.992;6.796;2023-04-26T11:39:22;10.80;99.90
54126;DHT22;40360;52.992;6.796;2023-04-26T11:41:48;10.90;99.90
54126;DHT22;40360;52.992;6.796;2023-04-26T11:44:18;11.00;99.90
54126;DHT22;40360;52.992;6.796;2023-04-26T11:46:46;11.10;99.90
54126;DHT22;40360;52.992;6.796;2023-04-26T11:49:12;11.10;99.90
54126;DHT22;40360;52.992;6.796;2023-04-26T11:51:38;11.00;99.90
54126;DHT22;40360;52.992;6.796;2023-04-26T11:54:04;10.90;99.90
54126;DHT22;40360;52.992;6.796;2023-04-26T11:56:29;10.70;99.90
54126;DHT22;40360;52.992;6.796;2023-04-26T11:58:55;10.70;99.90
54126;DHT22;40360;52.992;6.796;2023-04-26T12:01:26;10.80;99.90
54126;DHT22;40360;52.992;6.796;2023-04-26T12:03:57;10.60;99.90
54126;DHT22;40360;52.992;6.796;2023-04-26T12:06:41;10.50;99.90
54126;DHT22;40360;52.992;6.796;2023-04-26T12:09:07;10.20;99.90
54126;DHT22;40360;52.992;6.796;2023-04-26T12:11:36;9.80;99.90
54126;DHT22;40360;52.992;6.796;2023-04-26T12:14:02;9.70;99.90
54126;DHT22;40360;52.992;6.796;2023-04-26T12:16:28;9.40;99.90
54126;DHT22;40360;52.992;6.796;2023-04-26T12:18:54;9.30;99.90
54126;DHT22;40360;52.992;6.796;2023-04-26T12:21:23;9.20;99.90
54126;DHT22;40360;52.992;6.796;2023-04-26T12:23:50;9.00;99.90
54126;DHT22;40360;52.992;6.796;2023-04-26T12:26:16;8.90;99.90
54126;DHT22;40360;52.992;6.796;2023-04-26T12:28:42;8.80;99.90
54126;DHT22;40360;52.992;6.796;2023-04-26T12:31:08;8.80;99.90
54126;DHT22;40360;52.992;6.796;2023-04-26T12:33:34;8.80;99.90
54126;DHT22;40360;52.992;6.796;2023-04-26T12:36:10;8.80;99.90
54126;DHT22;40360;52.992;6.796;2023-04-26T12:38:36;8.80;99.90
54126;DHT22;40360;52.992;6.796;2023-04-26T12:41:02;8.90;99.90
54126;DHT22;40360;52.992;6.796;2023-04-26T12:43:28;9.00;99.90
54126;DHT22;40360;52.992;6.796;2023-04-26T12:45:53;9.10;99.90
54126;DHT22;40360;52.992;6.796;2023-04-26T12:48:19;9.10;99.90
54126;DHT22;40360;52.992;6.796;2023-04-26T12:50:46;9.10;99.90
54126;DHT22;40360;52.992;6.796;2023-04-26T12:53:12;9.20;99.90
54126;DHT22;40360;52.992;6.796;2023-04-26T12:55:38;9.10;99.90
54126;DHT22;40360;52.992;6.796;2023-04-26T12:58:04;9.10;99.90
54126;DHT22;40360;52.992;6.796;2023-04-26T13:00:29;9.20;99.90
54126;DHT22;40360;52.992;6.796;2023-04-26T13:02:55;9.20;99.90
54126;DHT22;40360;52.992;6.796;2023-04-26T13:05:21;9.30;99.90
54126;DHT22;40360;52.992;6.796;2023-04-26T13:07:49;9.50;99.90
54126;DHT22;40360;52.992;6.796;2023-04-26T13:10:15;9.40;99.90
54126;DHT22;40360;52.992;6.796;2023-04-26T13:12:41;9.50;99.90
54126;DHT22;40360;52.992;6.796;2023-04-26T13:15:08;9.50;99.90
54126;DHT22;40360;52.992;6.796;2023-04-26T13:17:37;9.60;99.90
54126;DHT22;40360;52.992;6.796;2023-04-26T13:20:04;9.60;99.90
54126;DHT22;40360;52.992;6.796;2023-04-26T13:22:31;9.60;99.90
54126;DHT22;40360;52.992;6.796;2023-04-26T13:24:57;9.50;99.90
54126;DHT22;40360;52.992;6.796;2023-04-26T13:27:22;9.40;99.90
54126;DHT22;40360;52.992;6.796;2023-04-26T13:29:48;9.30;99.90
54126;DHT22;40360;52.992;6.796;2023-04-26T13:32:13;9.20;99.90
54126;DHT22;40360;52.992;6.796;2023-04-26T13:34:39;9.10;99.90
54126;DHT22;40360;52.992;6.796;2023-04-26T13:37:05;9.20;99.90
54126;DHT22;40360;52.992;6.796;2023-04-26T13:39:30;9.10;99.90
54126;DHT22;40360;52.992;6.796;2023-04-26T13:41:58;9.10;99.90
54126;DHT22;40360;52.992;6.796;2023-04-26T13:44:24;9.10;99.90
54126;DHT22;40360;52.992;6.796;2023-04-26T13:46:50;9.00;99.90
54126;DHT22;40360;52.992;6.796;2023-04-26T13:49:16;9.10;99.90
54126;DHT22;40360;52.992;6.796;2023-04-26T13:51:42;9.00;99.90
54126;DHT22;40360;52.992;6.796;2023-04-26T13:54:07;9.10;99.90
54126;DHT22;40360;52.992;6.796;2023-04-26T13:56:35;9.10;99.90
54126;DHT22;40360;52.992;6.796;2023-04-26T13:59:01;9.10;99.90
54126;DHT22;40360;52.992;6.796;2023-04-26T14:01:29;9.30;99.90
54126;DHT22;40360;52.992;6.796;2023-04-26T14:03:55;9.30;99.90
54126;DHT22;40360;52.992;6.796;2023-04-26T14:06:21;9.30;99.90
54126;DHT22;40360;52.992;6.796;2023-04-26T14:08:46;9.50;99.90
54126;DHT22;40360;52.992;6.796;2023-04-26T14:11:12;9.60;99.90
54126;DHT22;40360;52.992;6.796;2023-04-26T14:13:39;9.70;99.90
54126;DHT22;40360;52.992;6.796;2023-04-26T14:16:05;9.70;99.90
54126;DHT22;40360;52.992;6.796;2023-04-26T14:18:31;9.80;99.90
54126;DHT22;40360;52.992;6.796;2023-04-26T14:20:56;9.80;99.90
54126;DHT22;40360;52.992;6.796;2023-04-26T14:23:22;9.80;99.90
54126;DHT22;40360;52.992;6.796;2023-04-26T14:25:52;9.90;99.90
54126;DHT22;40360;52.992;6.796;2023-04-26T14:28:18;10.00;99.90
54126;DHT22;40360;52.992;6.796;2023-04-26T14:30:43;10.00;99.90
54126;DHT22;40360;52.992;6.796;2023-04-26T14:33:10;10.00;99.90
54126;DHT22;40360;52.992;6.796;2023-04-26T14:35:36;10.20;99.90
54126;DHT22;40360;52.992;6.796;2023-04-26T14:38:01;10.20;99.90
54126;DHT22;40360;52.992;6.796;2023-04-26T14:40:27;10.30;99.90
54126;DHT22;40360;52.992;6.796;2023-04-26T14:42:52;10.30;99.90
54126;DHT22;40360;52.992;6.796;2023-04-26T14:45:18;10.40;99.90
54126;DHT22;40360;52.992;6.796;2023-04-26T14:47:44;10.40;99.90
54126;DHT22;40360;52.992;6.796;2023-04-26T14:50:10;10.40;99.90
54126;DHT22;40360;52.992;6.796;2023-04-26T14:52:38;10.30;99.90
54126;DHT22;40360;52.992;6.796;2023-04-26T14:55:04;10.20;99.90
54126;DHT22;40360;52.992;6.796;2023-04-26T14:57:29;10.10;99.90
54126;DHT22;40360;52.992;6.796;2023-04-26T14:59:56;9.90;99.90
54126;DHT22;40360;52.992;6.796;2023-04-26T15:02:30;9.70;99.90
54126;DHT22;40360;52.992;6.796;2023-04-26T15:04:56;9.60;99.90
54126;DHT22;40360;52.992;6.796;2023-04-26T15:07:21;9.50;99.90
54126;DHT22;40360;52.992;6.796;2023-04-26T15:09:48;9.40;99.90
54126;DHT22;40360;52.992;6.796;2023-04-26T15:12:13;9.20;99.90
54126;DHT22;40360;52.992;6.796;2023-04-26T15:14:39;9.20;99.90
54126;DHT22;40360;52.992;6.796;2023-04-26T15:17:04;9.10;99.90
54126;DHT22;40360;52.992;6.796;2023-04-26T15:19:30;9.00;99.90
54126;DHT22;40360;52.992;6.796;2023-04-26T15:21:56;8.90;99.90
54126;DHT22;40360;52.992;6.796;2023-04-26T15:24:22;9.20;99.90
54126;DHT22;40360;52.992;6.796;2023-04-26T15:26:48;8.90;99.90
54126;DHT22;40360;52.992;6.796;2023-04-26T15:29:13;8.90;99.90
54126;DHT22;40360;52.992;6.796;2023-04-26T15:31:39;8.90;99.90
54126;DHT22;40360;52.992;6.796;2023-04-26T15:34:04;8.90;99.90
54126;DHT22;40360;52.992;6.796;2023-04-26T15:36:30;9.00;99.90
54126;DHT22;40360;52.992;6.796;2023-04-26T15:38:56;9.10;99.90
54126;DHT22;40360;52.992;6.796;2023-04-26T15:41:21;9.30;99.90
54126;DHT22;40360;52.992;6.796;2023-04-26T15:43:52;9.50;99.90
54126;DHT22;40360;52.992;6.796;2023-04-26T15:46:17;9.80;99.90
54126;DHT22;40360;52.992;6.796;2023-04-26T15:48:43;10.00;99.90
54126;DHT22;40360;52.992;6.796;2023-04-26T15:51:09;10.20;99.90
54126;DHT22;40360;52.992;6.796;2023-04-26T15:53:34;10.20;99.90
54126;DHT22;40360;52.992;6.796;2023-04-26T15:56:00;10.10;99.90
54126;DHT22;40360;52.992;6.796;2023-04-26T15:58:25;10.10;99.90
54126;DHT22;40360;52.992;6.796;2023-04-26T16:00:51;10.20;99.90
54126;DHT22;40360;52.992;6.796;2023-04-26T16:03:17;10.10;99.90
54126;DHT22;40360;52.992;6.796;2023-04-26T16:05:42;10.10;99.90
54126;DHT22;40360;52.992;6.796;2023-04-26T16:08:08;10.00;99.90
54126;DHT22;40360;52.992;6.796;2023-04-26T16:10:34;10.00;99.90
54126;DHT22;40360;52.992;6.796;2023-04-26T16:12:59;10.10;99.90
54126;DHT22;40360;52.992;6.796;2023-04-26T16:15:25;10.20;99.90